sensor_id;sensor_type;location;lat;lon;timestamp;pressure;altitude;pressure_sealevel;temperature;humidity
27613;BME280;15036;48.094;-1.690;2023-04-24T00:01:47;100478.25;;;15.72;49.46
27613;BME280;15036;48.094;-1.690;2023-04-24T00:04:13;100481.22;;;15.93;49.31
27613;BME280;15036;48.094;-1.690;2023-04-24T00:06:41;100496.81;;;15.23;51.41
27613;BME280;15036;48.094;-1.690;2023-04-24T00:09:08;100488.88;;;16.03;49.34
27613;BME280;15036;48.094;-1.690;2023-04-24T00:11:35;100487.09;;;15.97;49.08
27613;BME280;15036;48.094;-1.690;2023-04-24T00:14:02;100480.22;;;16.22;48.42
27613;BME280;15036;48.094;-1.690;2023-04-24T00:16:28;100489.25;;;15.95;49.10
27613;BME280;15036;48.094;-1.690;2023-04-24T00:18:55;100483.56;;;16.36;48.69
27613;BME280;15036;48.094;-1.690;2023-04-24T00:21:20;100481.69;;;15.79;49.30
27613;BME280;15036;48.094;-1.690;2023-04-24T00:23:47;100489.59;;;15.87;49.54
27613;BME280;15036;48.094;-1.690;2023-04-24T00:26:12;100485.44;;;15.84;49.45
27613;BME280;15036;48.094;-1.690;2023-04-24T00:28:38;100493.91;;;15.83;49.49
27613;BME280;15036;48.094;-1.690;2023-04-24T00:31:03;100482.91;;;15.59;49.91
27613;BME280;15036;48.094;-1.690;2023-04-24T00:33:28;100492.97;;;15.66;49.95
27613;BME280;15036;48.094;-1.690;2023-04-24T00:35:54;100493.25;;;15.34;50.81
27613;BME280;15036;48.094;-1.690;2023-04-24T00:38:20;100483.16;;;15.58;50.10
27613;BME280;15036;48.094;-1.690;2023-04-24T00:40:45;100488.41;;;15.59;49.96
27613;BME280;15036;48.094;-1.690;2023-04-24T00:43:12;100494.16;;;15.70;49.90
27613;BME280;15036;48.094;-1.690;2023-04-24T00:45:38;100486.41;;;15.78;49.77
27613;BME280;15036;48.094;-1.690;2023-04-24T00:48:03;100480.09;;;15.36;50.73
27613;BME280;15036;48.094;-1.690;2023-04-24T00:50:29;100484.72;;;15.66;50.27
27613;BME280;15036;48.094;-1.690;2023-04-24T00:52:55;100493.56;;;15.56;50.44
27613;BME280;15036;48.094;-1.690;2023-04-24T00:55:21;100493.66;;;15.49;51.00
27613;BME280;15036;48.094;-1.690;2023-04-24T00:57:47;100509.41;;;15.31;51.84
27613;BME280;15036;48.094;-1.690;2023-04-24T01:00:13;100501.88;;;15.38;51.54
27613;BME280;15036;48.094;-1.690;2023-04-24T01:02:40;100504.94;;;15.18;52.50
27613;BME280;15036;48.094;-1.690;2023-04-24T01:05:09;100503.97;;;15.66;51.22
27613;BME280;15036;48.094;-1.690;2023-04-24T01:07:34;100497.75;;;15.58;51.44
27613;BME280;15036;48.094;-1.690;2023-04-24T01:10:02;100502.53;;;15.98;50.47
27613;BME280;15036;48.094;-1.690;2023-04-24T01:12:27;100495.91;;;15.41;51.33
27613;BME280;15036;48.094;-1.690;2023-04-24T01:14:54;100514.28;;;15.70;51.34
27613;BME280;15036;48.094;-1.690;2023-04-24T01:17:21;100506.59;;;15.95;50.84
27613;BME280;15036;48.094;-1.690;2023-04-24T01:19:47;100514.47;;;15.57;51.78
27613;BME280;15036;48.094;-1.690;2023-04-24T01:22:16;100520.72;;;15.87;51.15
27613;BME280;15036;48.094;-1.690;2023-04-24T01:24:42;100520.72;;;15.64;51.32
27613;BME280;15036;48.094;-1.690;2023-04-24T01:27:10;100523.72;;;15.74;51.38
27613;BME280;15036;48.094;-1.690;2023-04-24T01:29:36;100522.91;;;15.32;52.31
27613;BME280;15036;48.094;-1.690;2023-04-24T01:32:02;100516.16;;;15.58;52.06
27613;BME280;15036;48.094;-1.690;2023-04-24T01:34:28;100525.72;;;15.44;52.01
27613;BME280;15036;48.094;-1.690;2023-04-24T01:36:54;100523.38;;;15.71;51.51
27613;BME280;15036;48.094;-1.690;2023-04-24T01:39:19;100524.88;;;15.55;52.48
27613;BME280;15036;48.094;-1.690;2023-04-24T01:41:46;100523.41;;;15.41;52.39
27613;BME280;15036;48.094;-1.690;2023-04-24T01:44:11;100514.63;;;15.21;52.93
27613;BME280;15036;48.094;-1.690;2023-04-24T01:46:37;100519.66;;;15.24;53.04
27613;BME280;15036;48.094;-1.690;2023-04-24T01:49:03;100516.16;;;15.58;52.17
27613;BME280;15036;48.094;-1.690;2023-04-24T01:51:29;100520.13;;;15.21;52.95
27613;BME280;15036;48.094;-1.690;2023-04-24T01:53:55;100522.59;;;14.99;53.93
27613;BME280;15036;48.094;-1.690;2023-04-24T01:56:21;100529.00;;;14.93;53.68
27613;BME280;15036;48.094;-1.690;2023-04-24T01:58:48;100519.56;;;15.30;52.98
27613;BME280;15036;48.094;-1.690;2023-04-24T02:01:18;100529.13;;;14.98;53.30
27613;BME280;15036;48.094;-1.690;2023-04-24T02:03:45;100526.06;;;14.76;53.69
27613;BME280;15036;48.094;-1.690;2023-04-24T02:06:10;100526.63;;;14.97;53.54
27613;BME280;15036;48.094;-1.690;2023-04-24T02:08:36;100517.72;;;14.83;54.22
27613;BME280;15036;48.094;-1.690;2023-04-24T02:11:01;100514.63;;;15.21;52.92
27613;BME280;15036;48.094;-1.690;2023-04-24T02:13:28;100517.06;;;15.29;52.90
27613;BME280;15036;48.094;-1.690;2023-04-24T02:15:54;100509.75;;;15.23;52.73
27613;BME280;15036;48.094;-1.690;2023-04-24T02:18:19;100507.31;;;15.15;53.45
27613;BME280;15036;48.094;-1.690;2023-04-24T02:20:45;100508.75;;;15.17;53.07
27613;BME280;15036;48.094;-1.690;2023-04-24T02:23:11;100506.56;;;15.08;53.33
27613;BME280;15036;48.094;-1.690;2023-04-24T02:25:36;100517.84;;;14.88;53.27
27613;BME280;15036;48.094;-1.690;2023-04-24T02:28:02;100526.56;;;15.44;52.13
27613;BME280;15036;48.094;-1.690;2023-04-24T02:30:28;100529.34;;;15.26;52.29
27613;BME280;15036;48.094;-1.690;2023-04-24T02:32:53;100538.66;;;15.25;53.04
27613;BME280;15036;48.094;-1.690;2023-04-24T02:35:19;100539.50;;;15.26;52.22
27613;BME280;15036;48.094;-1.690;2023-04-24T02:37:44;100539.16;;;15.63;51.92
27613;BME280;15036;48.094;-1.690;2023-04-24T02:40:10;100538.78;;;15.19;52.21
27613;BME280;15036;48.094;-1.690;2023-04-24T02:42:35;100542.94;;;15.51;51.60
27613;BME280;15036;48.094;-1.690;2023-04-24T02:45:00;100551.50;;;15.84;50.99
27613;BME280;15036;48.094;-1.690;2023-04-24T02:47:26;100552.91;;;15.63;51.24
27613;BME280;15036;48.094;-1.690;2023-04-24T02:49:51;100557.69;;;15.56;51.35
27613;BME280;15036;48.094;-1.690;2023-04-24T02:52:16;100552.53;;;15.60;51.78
27613;BME280;15036;48.094;-1.690;2023-04-24T02:54:42;100551.84;;;15.65;51.88
27613;BME280;15036;48.094;-1.690;2023-04-24T02:57:08;100562.97;;;15.70;51.93
27613;BME280;15036;48.094;-1.690;2023-04-24T02:59:33;100556.47;;;15.52;52.26
27613;BME280;15036;48.094;-1.690;2023-04-24T03:01:59;100554.44;;;15.18;53.18
27613;BME280;15036;48.094;-1.690;2023-04-24T03:04:24;100554.84;;;15.75;51.60
27613;BME280;15036;48.094;-1.690;2023-04-24T03:06:51;100557.97;;;15.90;51.38
27613;BME280;15036;48.094;-1.690;2023-04-24T03:09:18;100558.97;;;15.42;52.48
27613;BME280;15036;48.094;-1.690;2023-04-24T03:11:43;100556.84;;;15.56;52.21
27613;BME280;15036;48.094;-1.690;2023-04-24T03:14:08;100559.38;;;15.81;51.52
27613;BME280;15036;48.094;-1.690;2023-04-24T03:16:34;100567.94;;;15.49;52.42
27613;BME280;15036;48.094;-1.690;2023-04-24T03:18:59;100564.41;;;16.07;50.73
27613;BME280;15036;48.094;-1.690;2023-04-24T03:21:24;100571.94;;;15.35;52.42
27613;BME280;15036;48.094;-1.690;2023-04-24T03:23:51;100567.53;;;15.99;50.88
27613;BME280;15036;48.094;-1.690;2023-04-24T03:26:17;100570.19;;;16.05;50.90
27613;BME280;15036;48.094;-1.690;2023-04-24T03:28:42;100575.78;;;15.76;50.96
27613;BME280;15036;48.094;-1.690;2023-04-24T03:31:07;100565.03;;;15.97;50.90
27613;BME280;15036;48.094;-1.690;2023-04-24T03:33:33;100563.00;;;16.16;50.49
27613;BME280;15036;48.094;-1.690;2023-04-24T03:35:58;100568.47;;;16.39;49.74
27613;BME280;15036;48.094;-1.690;2023-04-24T03:38:23;100577.56;;;15.58;51.66
27613;BME280;15036;48.094;-1.690;2023-04-24T03:40:49;100579.28;;;15.94;50.47
27613;BME280;15036;48.094;-1.690;2023-04-24T03:43:14;100584.78;;;16.06;50.42
27613;BME280;15036;48.094;-1.690;2023-04-24T03:45:39;100579.75;;;16.03;50.39
27613;BME280;15036;48.094;-1.690;2023-04-24T03:48:05;100569.56;;;15.92;50.59
27613;BME280;15036;48.094;-1.690;2023-04-24T03:50:30;100578.94;;;15.20;51.95
27613;BME280;15036;48.094;-1.690;2023-04-24T03:52:55;100579.16;;;16.01;50.64
27613;BME280;15036;48.094;-1.690;2023-04-24T03:55:21;100579.16;;;16.24;49.97
27613;BME280;15036;48.094;-1.690;2023-04-24T03:57:47;100581.19;;;16.17;50.10
27613;BME280;15036;48.094;-1.690;2023-04-24T04:00:12;100582.75;;;16.01;50.35
27613;BME280;15036;48.094;-1.690;2023-04-24T04:02:38;100588.78;;;15.57;51.52
27613;BME280;15036;48.094;-1.690;2023-04-24T04:05:03;100591.69;;;15.74;51.12
27613;BME280;15036;48.094;-1.690;2023-04-24T04:07:28;100596.75;;;15.77;50.94
27613;BME280;15036;48.094;-1.690;2023-04-24T04:09:55;100600.72;;;15.51;51.71
27613;BME280;15036;48.094;-1.690;2023-04-24T04:12:20;100605.78;;;15.66;51.82
27613;BME280;15036;48.094;-1.690;2023-04-24T04:14:45;100604.59;;;15.32;52.51
27613;BME280;15036;48.094;-1.690;2023-04-24T04:17:11;100598.28;;;15.13;52.91
27613;BME280;15036;48.094;-1.690;2023-04-24T04:19:36;100614.09;;;15.47;52.32
27613;BME280;15036;48.094;-1.690;2023-04-24T04:22:02;100612.78;;;15.20;52.72
27613;BME280;15036;48.094;-1.690;2023-04-24T04:24:27;100626.56;;;15.50;52.51
27613;BME280;15036;48.094;-1.690;2023-04-24T04:26:53;100612.47;;;15.28;52.54
27613;BME280;15036;48.094;-1.690;2023-04-24T04:29:22;100614.22;;;15.82;50.78
27613;BME280;15036;48.094;-1.690;2023-04-24T04:31:47;100623.50;;;15.70;51.21
27613;BME280;15036;48.094;-1.690;2023-04-24T04:34:13;100622.69;;;15.21;52.65
27613;BME280;15036;48.094;-1.690;2023-04-24T04:36:39;100627.22;;;15.75;51.57
27613;BME280;15036;48.094;-1.690;2023-04-24T04:39:06;100632.25;;;15.67;51.57
27613;BME280;15036;48.094;-1.690;2023-04-24T04:41:31;100627.47;;;15.74;51.27
27613;BME280;15036;48.094;-1.690;2023-04-24T04:43:58;100616.47;;;15.74;51.42
27613;BME280;15036;48.094;-1.690;2023-04-24T04:46:24;100624.59;;;15.69;51.46
27613;BME280;15036;48.094;-1.690;2023-04-24T04:48:52;100626.41;;;15.75;51.25
27613;BME280;15036;48.094;-1.690;2023-04-24T04:51:17;100630.53;;;15.54;51.89
27613;BME280;15036;48.094;-1.690;2023-04-24T04:53:42;100636.41;;;15.57;51.89
27613;BME280;15036;48.094;-1.690;2023-04-24T04:56:08;100637.06;;;15.83;51.46
27613;BME280;15036;48.094;-1.690;2023-04-24T04:58:33;100648.63;;;15.14;52.23
27613;BME280;15036;48.094;-1.690;2023-04-24T05:00:58;100650.03;;;14.87;53.29
27613;BME280;15036;48.094;-1.690;2023-04-24T05:03:24;100653.09;;;15.44;51.97
27613;BME280;15036;48.094;-1.690;2023-04-24T05:05:50;100655.66;;;15.39;52.61
27613;BME280;15036;48.094;-1.690;2023-04-24T05:08:15;100667.47;;;15.28;52.68
27613;BME280;15036;48.094;-1.690;2023-04-24T05:10:41;100674.78;;;15.34;52.77
27613;BME280;15036;48.094;-1.690;2023-04-24T05:13:06;100670.28;;;15.70;51.98
27613;BME280;15036;48.094;-1.690;2023-04-24T05:15:32;100669.25;;;15.71;51.49
27613;BME280;15036;48.094;-1.690;2023-04-24T05:17:57;100671.97;;;16.12;50.82
27613;BME280;15036;48.094;-1.690;2023-04-24T05:20:22;100677.97;;;15.79;50.85
27613;BME280;15036;48.094;-1.690;2023-04-24T05:22:48;100680.44;;;16.10;50.72
27613;BME280;15036;48.094;-1.690;2023-04-24T05:25:13;100682.88;;;15.77;51.19
27613;BME280;15036;48.094;-1.690;2023-04-24T05:27:38;100695.91;;;15.70;51.56
27613;BME280;15036;48.094;-1.690;2023-04-24T05:30:05;100703.84;;;15.78;51.41
27613;BME280;15036;48.094;-1.690;2023-04-24T05:32:30;100699.28;;;15.72;51.43
27613;BME280;15036;48.094;-1.690;2023-04-24T05:34:55;100705.38;;;15.44;52.16
27613;BME280;15036;48.094;-1.690;2023-04-24T05:37:21;100702.69;;;15.20;52.66
27613;BME280;15036;48.094;-1.690;2023-04-24T05:39:46;100707.44;;;14.95;53.32
27613;BME280;15036;48.094;-1.690;2023-04-24T05:42:12;100704.22;;;15.34;52.30
27613;BME280;15036;48.094;-1.690;2023-04-24T05:44:37;100703.94;;;15.72;51.67
27613;BME280;15036;48.094;-1.690;2023-04-24T05:47:02;100704.41;;;15.69;51.37
27613;BME280;15036;48.094;-1.690;2023-04-24T05:49:28;100699.06;;;15.55;51.61
27613;BME280;15036;48.094;-1.690;2023-04-24T05:51:53;100701.34;;;15.77;51.05
27613;BME280;15036;48.094;-1.690;2023-04-24T05:54:18;100706.97;;;15.34;51.78
27613;BME280;15036;48.094;-1.690;2023-04-24T05:56:44;100712.91;;;15.49;51.74
27613;BME280;15036;48.094;-1.690;2023-04-24T05:59:09;100708.19;;;15.97;50.72
27613;BME280;15036;48.094;-1.690;2023-04-24T06:01:35;100706.19;;;16.04;50.72
27613;BME280;15036;48.094;-1.690;2023-04-24T06:04:03;100709.63;;;15.58;51.73
27613;BME280;15036;48.094;-1.690;2023-04-24T06:06:28;100712.38;;;15.88;51.17
27613;BME280;15036;48.094;-1.690;2023-04-24T06:08:54;100711.28;;;15.59;51.70
27613;BME280;15036;48.094;-1.690;2023-04-24T06:11:19;100704.16;;;15.70;51.70
27613;BME280;15036;48.094;-1.690;2023-04-24T06:13:45;100712.13;;;15.90;50.98
27613;BME280;15036;48.094;-1.690;2023-04-24T06:16:10;100704.00;;;15.65;51.13
27613;BME280;15036;48.094;-1.690;2023-04-24T06:18:36;100712.53;;;15.27;52.10
27613;BME280;15036;48.094;-1.690;2023-04-24T06:21:01;100714.75;;;15.37;52.31
27613;BME280;15036;48.094;-1.690;2023-04-24T06:23:27;100710.38;;;15.29;52.19
27613;BME280;15036;48.094;-1.690;2023-04-24T06:25:52;100704.91;;;15.47;51.85
27613;BME280;15036;48.094;-1.690;2023-04-24T06:28:18;100706.84;;;15.11;52.19
27613;BME280;15036;48.094;-1.690;2023-04-24T06:30:43;100707.44;;;15.31;52.36
27613;BME280;15036;48.094;-1.690;2023-04-24T06:33:09;100698.09;;;15.50;51.60
27613;BME280;15036;48.094;-1.690;2023-04-24T06:35:36;100702.72;;;15.68;50.86
27613;BME280;15036;48.094;-1.690;2023-04-24T06:38:01;100695.88;;;15.58;51.63
27613;BME280;15036;48.094;-1.690;2023-04-24T06:40:27;100688.91;;;15.56;51.26
27613;BME280;15036;48.094;-1.690;2023-04-24T06:42:52;100698.44;;;15.72;51.05
27613;BME280;15036;48.094;-1.690;2023-04-24T06:45:18;100696.22;;;15.92;50.85
27613;BME280;15036;48.094;-1.690;2023-04-24T06:47:43;100688.22;;;16.02;50.59
27613;BME280;15036;48.094;-1.690;2023-04-24T06:50:09;100696.00;;;16.05;50.21
27613;BME280;15036;48.094;-1.690;2023-04-24T06:52:34;100692.47;;;16.39;49.56
27613;BME280;15036;48.094;-1.690;2023-04-24T06:55:03;100690.31;;;16.41;49.32
27613;BME280;15036;48.094;-1.690;2023-04-24T06:57:29;100684.56;;;16.42;49.42
27613;BME280;15036;48.094;-1.690;2023-04-24T06:59:55;100693.09;;;16.53;49.17
27613;BME280;15036;48.094;-1.690;2023-04-24T07:02:20;100694.16;;;16.40;48.90
27613;BME280;15036;48.094;-1.690;2023-04-24T07:04:46;100695.38;;;16.67;48.64
27613;BME280;15036;48.094;-1.690;2023-04-24T07:07:13;100701.44;;;16.46;49.02
27613;BME280;15036;48.094;-1.690;2023-04-24T07:09:39;100707.78;;;16.12;49.21
27613;BME280;15036;48.094;-1.690;2023-04-24T07:12:07;100697.53;;;15.59;51.07
27613;BME280;15036;48.094;-1.690;2023-04-24T07:14:32;100700.81;;;16.09;49.33
27613;BME280;15036;48.094;-1.690;2023-04-24T07:16:58;100703.69;;;16.14;49.66
27613;BME280;15036;48.094;-1.690;2023-04-24T07:19:23;100709.25;;;16.37;48.90
27613;BME280;15036;48.094;-1.690;2023-04-24T07:21:49;100706.53;;;15.96;48.78
27613;BME280;15036;48.094;-1.690;2023-04-24T07:24:14;100712.09;;;16.19;48.94
27613;BME280;15036;48.094;-1.690;2023-04-24T07:26:40;100711.19;;;16.48;48.61
27613;BME280;15036;48.094;-1.690;2023-04-24T07:29:06;100716.94;;;16.70;48.15
27613;BME280;15036;48.094;-1.690;2023-04-24T07:31:31;100711.94;;;16.14;48.63
27613;BME280;15036;48.094;-1.690;2023-04-24T07:33:57;100713.44;;;16.40;47.80
27613;BME280;15036;48.094;-1.690;2023-04-24T07:36:24;100705.06;;;17.04;46.83
27613;BME280;15036;48.094;-1.690;2023-04-24T07:38:51;100721.16;;;16.73;47.17
27613;BME280;15036;48.094;-1.690;2023-04-24T07:41:16;100713.91;;;16.37;48.07
27613;BME280;15036;48.094;-1.690;2023-04-24T07:43:41;100715.13;;;17.10;47.21
27613;BME280;15036;48.094;-1.690;2023-04-24T07:46:08;100715.03;;;17.05;47.22
27613;BME280;15036;48.094;-1.690;2023-04-24T07:48:35;100720.66;;;16.64;47.75
27613;BME280;15036;48.094;-1.690;2023-04-24T07:51:00;100724.66;;;16.27;48.27
27613;BME280;15036;48.094;-1.690;2023-04-24T07:53:26;100722.44;;;16.47;48.24
27613;BME280;15036;48.094;-1.690;2023-04-24T07:55:51;100728.53;;;16.26;48.63
27613;BME280;15036;48.094;-1.690;2023-04-24T07:58:16;100716.16;;;15.76;49.96
27613;BME280;15036;48.094;-1.690;2023-04-24T08:00:42;100727.97;;;16.70;48.45
27613;BME280;15036;48.094;-1.690;2023-04-24T08:03:07;100731.13;;;16.74;48.32
27613;BME280;15036;48.094;-1.690;2023-04-24T08:05:33;100726.41;;;16.74;47.98
27613;BME280;15036;48.094;-1.690;2023-04-24T08:07:58;100729.88;;;17.04;47.92
27613;BME280;15036;48.094;-1.690;2023-04-24T08:10:24;100723.41;;;16.99;47.50
27613;BME280;15036;48.094;-1.690;2023-04-24T08:12:50;100722.00;;;16.62;48.34
27613;BME280;15036;48.094;-1.690;2023-04-24T08:15:16;100719.00;;;17.38;47.27
27613;BME280;15036;48.094;-1.690;2023-04-24T08:17:41;100719.97;;;17.31;47.13
27613;BME280;15036;48.094;-1.690;2023-04-24T08:20:08;100725.47;;;17.55;46.09
27613;BME280;15036;48.094;-1.690;2023-04-24T08:22:41;100710.19;;;17.92;45.35
27613;BME280;15036;48.094;-1.690;2023-04-24T08:25:08;100717.38;;;17.13;46.33
27613;BME280;15036;48.094;-1.690;2023-04-24T08:27:34;100730.63;;;16.65;47.75
27613;BME280;15036;48.094;-1.690;2023-04-24T08:30:02;100725.72;;;17.42;46.54
27613;BME280;15036;48.094;-1.690;2023-04-24T08:32:27;100722.91;;;17.25;45.98
27613;BME280;15036;48.094;-1.690;2023-04-24T08:34:54;100724.47;;;17.89;44.93
27613;BME280;15036;48.094;-1.690;2023-04-24T08:37:22;100732.56;;;17.51;45.44
27613;BME280;15036;48.094;-1.690;2023-04-24T08:39:47;100740.09;;;17.55;45.70
27613;BME280;15036;48.094;-1.690;2023-04-24T08:42:14;100734.66;;;17.72;45.44
27613;BME280;15036;48.094;-1.690;2023-04-24T08:44:40;100732.06;;;18.10;44.61
27613;BME280;15036;48.094;-1.690;2023-04-24T08:47:07;100733.97;;;16.90;46.70
27613;BME280;15036;48.094;-1.690;2023-04-24T08:49:33;100726.91;;;17.85;45.24
27613;BME280;15036;48.094;-1.690;2023-04-24T08:52:00;100733.63;;;18.51;44.24
27613;BME280;15036;48.094;-1.690;2023-04-24T08:54:25;100732.56;;;18.07;44.10
27613;BME280;15036;48.094;-1.690;2023-04-24T08:56:53;100733.81;;;17.99;44.17
27613;BME280;15036;48.094;-1.690;2023-04-24T08:59:21;100735.94;;;18.26;43.61
27613;BME280;15036;48.094;-1.690;2023-04-24T09:01:48;100736.41;;;18.06;44.14
27613;BME280;15036;48.094;-1.690;2023-04-24T09:04:14;100726.50;;;17.93;44.51
27613;BME280;15036;48.094;-1.690;2023-04-24T09:06:40;100726.41;;;18.33;43.40
27613;BME280;15036;48.094;-1.690;2023-04-24T09:09:07;100727.06;;;18.24;44.33
27613;BME280;15036;48.094;-1.690;2023-04-24T09:11:33;100724.09;;;19.13;42.71
27613;BME280;15036;48.094;-1.690;2023-04-24T09:13:59;100728.34;;;19.21;42.09
27613;BME280;15036;48.094;-1.690;2023-04-24T09:16:26;100723.22;;;18.74;42.12
27613;BME280;15036;48.094;-1.690;2023-04-24T09:18:51;100719.38;;;19.14;42.09
27613;BME280;15036;48.094;-1.690;2023-04-24T09:21:17;100726.75;;;19.46;41.93
27613;BME280;15036;48.094;-1.690;2023-04-24T09:23:42;100716.25;;;19.27;42.22
27613;BME280;15036;48.094;-1.690;2023-04-24T09:26:09;100724.84;;;19.09;42.28
27613;BME280;15036;48.094;-1.690;2023-04-24T09:28:38;100727.81;;;19.24;42.18
27613;BME280;15036;48.094;-1.690;2023-04-24T09:33:32;100715.72;;;19.51;40.85
27613;BME280;15036;48.094;-1.690;2023-04-24T09:35:57;100724.84;;;19.09;41.94
27613;BME280;15036;48.094;-1.690;2023-04-24T09:38:34;100724.97;;;19.19;41.30
27613;BME280;15036;48.094;-1.690;2023-04-24T09:41:12;100723.00;;;17.98;43.21
27613;BME280;15036;48.094;-1.690;2023-04-24T09:43:38;100727.78;;;19.02;41.94
27613;BME280;15036;48.094;-1.690;2023-04-24T09:46:05;100740.59;;;18.53;42.90
27613;BME280;15036;48.094;-1.690;2023-04-24T09:48:35;100739.38;;;18.82;41.73
27613;BME280;15036;48.094;-1.690;2023-04-24T09:51:03;100736.78;;;19.31;41.16
27613;BME280;15036;48.094;-1.690;2023-04-24T09:53:30;100742.22;;;19.26;41.55
27613;BME280;15036;48.094;-1.690;2023-04-24T09:55:56;100743.53;;;19.83;40.78
27613;BME280;15036;48.094;-1.690;2023-04-24T09:58:25;100734.81;;;19.48;40.50
27613;BME280;15036;48.094;-1.690;2023-04-24T10:00:54;100735.47;;;19.17;40.54
27613;BME280;15036;48.094;-1.690;2023-04-24T10:03:21;100743.38;;;19.30;40.86
27613;BME280;15036;48.094;-1.690;2023-04-24T10:05:46;100739.50;;;18.54;40.18
27613;BME280;15036;48.094;-1.690;2023-04-24T10:08:12;100743.06;;;18.88;39.44
27613;BME280;15036;48.094;-1.690;2023-04-24T10:10:43;100739.50;;;18.54;40.48
27613;BME280;15036;48.094;-1.690;2023-04-24T10:13:09;100739.91;;;19.34;38.96
27613;BME280;15036;48.094;-1.690;2023-04-24T10:15:36;100742.22;;;19.26;38.75
27613;BME280;15036;48.094;-1.690;2023-04-24T10:18:01;100744.41;;;19.62;38.48
27613;BME280;15036;48.094;-1.690;2023-04-24T10:20:29;100743.31;;;19.63;38.96
27613;BME280;15036;48.094;-1.690;2023-04-24T10:22:59;100747.38;;;19.17;39.68
27613;BME280;15036;48.094;-1.690;2023-04-24T10:25:27;100754.47;;;19.30;40.04
27613;BME280;15036;48.094;-1.690;2023-04-24T10:27:53;100751.72;;;19.73;39.58
27613;BME280;15036;48.094;-1.690;2023-04-24T10:30:22;100741.44;;;19.09;40.34
27613;BME280;15036;48.094;-1.690;2023-04-24T10:32:48;100750.69;;;18.31;42.29
27613;BME280;15036;48.094;-1.690;2023-04-24T10:35:15;100757.31;;;18.96;41.47
27613;BME280;15036;48.094;-1.690;2023-04-24T10:37:45;100749.53;;;18.93;41.17
27613;BME280;15036;48.094;-1.690;2023-04-24T10:40:17;100735.84;;;19.42;40.30
27613;BME280;15036;48.094;-1.690;2023-04-24T10:42:47;100727.75;;;19.57;40.15
27613;BME280;15036;48.094;-1.690;2023-04-24T10:45:17;100721.69;;;20.13;39.04
27613;BME280;15036;48.094;-1.690;2023-04-24T10:47:51;100713.16;;;19.93;39.27
27613;BME280;15036;48.094;-1.690;2023-04-24T10:50:16;100718.16;;;19.69;39.71
27613;BME280;15036;48.094;-1.690;2023-04-24T10:52:46;100719.59;;;19.99;39.10
27613;BME280;15036;48.094;-1.690;2023-04-24T10:55:15;100727.53;;;20.17;38.36
27613;BME280;15036;48.094;-1.690;2023-04-24T10:58:01;100719.81;;;20.50;37.84
27613;BME280;15036;48.094;-1.690;2023-04-24T11:00:26;100728.69;;;20.84;37.56
27613;BME280;15036;48.094;-1.690;2023-04-24T11:02:53;100730.06;;;20.82;37.88
27613;BME280;15036;48.094;-1.690;2023-04-24T11:05:19;100730.16;;;21.38;36.74
27613;BME280;15036;48.094;-1.690;2023-04-24T11:08:11;100722.16;;;21.47;36.54
27613;BME280;15036;48.094;-1.690;2023-04-24T11:10:44;100728.78;;;21.41;37.44
27613;BME280;15036;48.094;-1.690;2023-04-24T11:13:09;100728.69;;;21.21;37.45
27613;BME280;15036;48.094;-1.690;2023-04-24T11:15:35;100721.53;;;20.56;37.82
27613;BME280;15036;48.094;-1.690;2023-04-24T11:18:00;100728.16;;;20.87;38.45
27613;BME280;15036;48.094;-1.690;2023-04-24T11:20:26;100719.31;;;20.22;39.12
27613;BME280;15036;48.094;-1.690;2023-04-24T11:22:53;100720.78;;;20.34;39.14
27613;BME280;15036;48.094;-1.690;2023-04-24T11:25:23;100717.19;;;20.07;39.53
27613;BME280;15036;48.094;-1.690;2023-04-24T11:27:49;100714.25;;;20.45;39.05
27613;BME280;15036;48.094;-1.690;2023-04-24T11:30:19;100724.59;;;20.23;38.60
27613;BME280;15036;48.094;-1.690;2023-04-24T11:32:50;100721.16;;;19.89;38.60
27613;BME280;15036;48.094;-1.690;2023-04-24T11:35:22;100722.38;;;20.25;37.58
27613;BME280;15036;48.094;-1.690;2023-04-24T11:37:52;100722.41;;;20.30;37.63
27613;BME280;15036;48.094;-1.690;2023-04-24T11:40:20;100718.09;;;20.44;38.01
27613;BME280;15036;48.094;-1.690;2023-04-24T11:42:49;100712.28;;;20.14;37.84
27613;BME280;15036;48.094;-1.690;2023-04-24T11:45:28;100716.34;;;21.02;37.35
27613;BME280;15036;48.094;-1.690;2023-04-24T11:47:55;100703.38;;;20.76;37.27
27613;BME280;15036;48.094;-1.690;2023-04-24T11:50:24;100704.63;;;21.00;35.57
27613;BME280;15036;48.094;-1.690;2023-04-24T11:52:54;100709.06;;;20.01;37.21
27613;BME280;15036;48.094;-1.690;2023-04-24T11:57:48;100715.06;;;21.19;35.45
27613;BME280;15036;48.094;-1.690;2023-04-24T12:00:22;100715.88;;;20.78;36.38
27613;BME280;15036;48.094;-1.690;2023-04-24T12:02:49;100722.75;;;20.70;35.65
27613;BME280;15036;48.094;-1.690;2023-04-24T12:05:41;100729.78;;;20.46;36.27
27613;BME280;15036;48.094;-1.690;2023-04-24T12:08:06;100724.84;;;20.53;36.81
27613;BME280;15036;48.094;-1.690;2023-04-24T12:10:32;100725.34;;;20.45;36.47
27613;BME280;15036;48.094;-1.690;2023-04-24T12:12:59;100724.06;;;20.26;36.77
27613;BME280;15036;48.094;-1.690;2023-04-24T12:15:26;100716.38;;;20.70;36.58
27613;BME280;15036;48.094;-1.690;2023-04-24T12:17:56;100719.06;;;20.97;36.67
27613;BME280;15036;48.094;-1.690;2023-04-24T12:20:31;100712.22;;;20.67;35.11
27613;BME280;15036;48.094;-1.690;2023-04-24T12:22:59;100712.72;;;20.28;35.70
27613;BME280;15036;48.094;-1.690;2023-04-24T12:25:27;100721.59;;;20.30;34.74
27613;BME280;15036;48.094;-1.690;2023-04-24T12:27:55;100722.06;;;19.47;35.97
27613;BME280;15036;48.094;-1.690;2023-04-24T12:30:21;100723.63;;;20.76;35.36
27613;BME280;15036;48.094;-1.690;2023-04-24T12:32:48;100712.59;;;19.91;36.72
27613;BME280;15036;48.094;-1.690;2023-04-24T12:35:19;100715.19;;;20.03;36.85
27613;BME280;15036;48.094;-1.690;2023-04-24T12:37:45;100725.81;;;20.11;37.11
27613;BME280;15036;48.094;-1.690;2023-04-24T12:40:12;100723.34;;;20.41;36.41
27613;BME280;15036;48.094;-1.690;2023-04-24T12:42:45;100723.66;;;20.44;36.46